Time;durP1;ratioP1;P1;durP2;ratioP2;P2;SDS_P1;SDS_P2;PMS_P1;PMS_P2;Temp;Humidity;BMP_temperature;BMP_pressure;BME280_temperature;BME280_humidity;BME280_pressure;Samples;Min_cycle;Max_cycle;Signal;HPM_P1;HPM_P2
2021/06/26 00:01:24;;;;;;;9.85;8.10;;;;;;;;;;5031926;28;20037;-60
2021/06/26 00:03:49;;;;;;;9.73;7.85;;;;;;;;;;5031629;28;20114;-60
2021/06/26 00:06:15;;;;;;;9.15;7.45;;;;;;;;;;5029939;28;20198;-60
2021/06/26 00:08:40;;;;;;;10.48;8.30;;;;;;;;;;5030086;28;20544;-60
2021/06/26 00:11:06;;;;;;;10.20;8.30;;;;;;;;;;5011572;28;20502;-60
2021/06/26 00:13:31;;;;;;;10.00;8.15;;;;;;;;;;5031599;28;20036;-60
2021/06/26 00:15:56;;;;;;;9.48;7.72;;;;;;;;;;5032693;28;21018;-61
2021/06/26 00:18:22;;;;;;;9.88;7.85;;;;;;;;;;5032732;28;20038;-60
2021/06/26 00:20:47;;;;;;;10.27;8.40;;;;;;;;;;5031839;28;20062;-60
2021/06/26 00:23:13;;;;;;;9.65;7.70;;;;;;;;;;5046191;28;20128;-61
2021/06/26 00:25:39;;;;;;;9.95;8.00;;;;;;;;;;5031902;28;20022;-61
2021/06/26 00:28:04;;;;;;;9.77;8.02;;;;;;;;;;5031959;28;20092;-61
2021/06/26 00:30:29;;;;;;;11.98;9.13;;;;;;;;;;5014102;28;20089;-61
2021/06/26 00:32:55;;;;;;;10.73;8.70;;;;;;;;;;5030977;28;20100;-61
2021/06/26 00:35:21;;;;;;;12.40;10.23;;;;;;;;;;5013999;28;20064;-61
2021/06/26 00:37:46;;;;;;;12.35;9.57;;;;;;;;;;5044872;28;20041;-61
2021/06/26 00:40:13;;;;;;;11.93;10.02;;;;;;;;;;5031952;28;20368;-61
2021/06/26 00:42:40;;;;;;;11.23;9.40;;;;;;;;;;5030713;28;20925;-61
2021/06/26 00:45:07;;;;;;;10.82;9.05;;;;;;;;;;5030774;28;20041;-61
2021/06/26 00:47:33;;;;;;;10.60;8.48;;;;;;;;;;5029423;28;20037;-61
2021/06/26 00:49:58;;;;;;;10.30;8.27;;;;;;;;;;5030507;28;20026;-61
2021/06/26 00:52:24;;;;;;;11.20;8.65;;;;;;;;;;5032113;28;20049;-62
2021/06/26 00:54:50;;;;;;;10.05;8.43;;;;;;;;;;5046010;28;20040;-61
2021/06/26 00:57:16;;;;;;;10.82;8.85;;;;;;;;;;5027972;28;20038;-61
2021/06/26 00:59:41;;;;;;;11.10;8.02;;;;;;;;;;5022444;28;20528;-60
2021/06/26 01:02:08;;;;;;;9.70;8.13;;;;;;;;;;5016708;28;20033;-60
2021/06/26 01:04:34;;;;;;;10.75;8.77;;;;;;;;;;5030402;28;20117;-61
2021/06/26 01:06:59;;;;;;;9.73;8.00;;;;;;;;;;5031421;28;20452;-61
2021/06/26 01:09:25;;;;;;;10.63;8.68;;;;;;;;;;5032161;28;20041;-61
2021/06/26 01:11:57;;;;;;;10.90;9.20;;;;;;;;;;5014549;28;20402;-60
2021/06/26 01:14:29;;;;;;;11.18;8.50;;;;;;;;;;5017031;28;20041;-61
2021/06/26 01:16:56;;;;;;;10.63;8.82;;;;;;;;;;5031690;28;20041;-61
2021/06/26 01:19:21;;;;;;;10.20;8.50;;;;;;;;;;5016617;28;20117;-61
2021/06/26 01:21:52;;;;;;;11.48;8.40;;;;;;;;;;5028748;28;20026;-61
2021/06/26 01:24:18;;;;;;;10.10;8.73;;;;;;;;;;5002356;28;20033;-61
2021/06/26 01:26:43;;;;;;;10.15;8.27;;;;;;;;;;5018687;28;20395;-61
2021/06/26 01:29:10;;;;;;;10.93;9.07;;;;;;;;;;5029572;28;20068;-61
2021/06/26 01:31:35;;;;;;;10.80;8.98;;;;;;;;;;5022593;28;20041;-61
2021/06/26 01:34:01;;;;;;;10.95;8.60;;;;;;;;;;5016418;28;20823;-60
2021/06/26 01:36:26;;;;;;;10.13;8.45;;;;;;;;;;5014262;28;20041;-61
2021/06/26 01:38:56;;;;;;;10.30;8.60;;;;;;;;;;5045995;28;20121;-61
2021/06/26 01:41:23;;;;;;;10.65;8.63;;;;;;;;;;5031482;28;20029;-61
2021/06/26 01:43:48;;;;;;;11.43;9.13;;;;;;;;;;5028172;28;20536;-61
2021/06/26 01:46:14;;;;;;;10.77;8.68;;;;;;;;;;5045890;28;20042;-61
2021/06/26 01:48:39;;;;;;;10.80;8.73;;;;;;;;;;5013002;28;20634;-61
2021/06/26 01:51:04;;;;;;;11.73;9.10;;;;;;;;;;5029961;28;20042;-61
2021/06/26 01:53:30;;;;;;;11.52;9.18;;;;;;;;;;5012421;28;20042;-61
2021/06/26 01:55:55;;;;;;;10.60;8.90;;;;;;;;;;5011940;28;20029;-61
2021/06/26 01:58:21;;;;;;;11.75;9.38;;;;;;;;;;5030532;28;20462;-61
2021/06/26 02:00:46;;;;;;;11.68;9.15;;;;;;;;;;5015740;28;20791;-61
2021/06/26 02:03:12;;;;;;;11.70;9.60;;;;;;;;;;5031231;28;20045;-61
2021/06/26 02:05:37;;;;;;;10.63;8.75;;;;;;;;;;5029257;28;20041;-61
2021/06/26 02:08:03;;;;;;;9.23;7.55;;;;;;;;;;5013539;28;20572;-61
2021/06/26 02:10:29;;;;;;;11.85;9.15;;;;;;;;;;5029819;28;20509;-60
2021/06/26 02:12:54;;;;;;;10.88;8.80;;;;;;;;;;5022055;28;20046;-61
2021/06/26 02:15:19;;;;;;;11.25;8.63;;;;;;;;;;5030603;28;20037;-61
2021/06/26 02:17:45;;;;;;;10.50;8.63;;;;;;;;;;5028980;28;20714;-61
2021/06/26 02:20:11;;;;;;;11.05;8.98;;;;;;;;;;5045300;28;20478;-61
2021/06/26 02:22:37;;;;;;;10.93;9.43;;;;;;;;;;5029886;28;20584;-61
2021/06/26 02:25:05;;;;;;;9.98;8.65;;;;;;;;;;5031321;28;20737;-61
2021/06/26 02:27:32;;;;;;;10.23;8.20;;;;;;;;;;5022003;28;20042;-61
2021/06/26 02:29:57;;;;;;;10.95;8.85;;;;;;;;;;5028741;28;20105;-60
2021/06/26 02:32:22;;;;;;;11.35;9.10;;;;;;;;;;5029738;28;20042;-61
2021/06/26 02:34:48;;;;;;;9.98;8.18;;;;;;;;;;5029500;28;20117;-61
2021/06/26 02:37:13;;;;;;;10.15;8.32;;;;;;;;;;5020293;28;20157;-61
2021/06/26 02:39:39;;;;;;;11.38;8.73;;;;;;;;;;5044715;28;20041;-61
2021/06/26 02:42:04;;;;;;;10.65;8.90;;;;;;;;;;5017064;28;20133;-60
2021/06/26 02:44:30;;;;;;;11.13;9.13;;;;;;;;;;5031901;28;20041;-60
2021/06/26 02:46:55;;;;;;;10.13;8.48;;;;;;;;;;5030431;28;20727;-61
2021/06/26 02:49:21;;;;;;;11.27;8.70;;;;;;;;;;5028755;28;20572;-60
2021/06/26 02:51:47;;;;;;;10.98;8.55;;;;;;;;;;5016512;28;20042;-61
2021/06/26 02:54:12;;;;;;;11.30;9.00;;;;;;;;;;5030741;28;20045;-61
2021/06/26 02:56:38;;;;;;;10.52;8.43;;;;;;;;;;5032904;28;20055;-61
2021/06/26 02:59:03;;;;;;;11.45;9.40;;;;;;;;;;5032485;28;20752;-61
2021/06/26 03:01:29;;;;;;;11.50;9.52;;;;;;;;;;5032181;28;20042;-61
2021/06/26 03:03:54;;;;;;;11.48;9.25;;;;;;;;;;5032445;28;20026;-60
2021/06/26 03:06:20;;;;;;;11.88;9.40;;;;;;;;;;5035917;28;20068;-60
2021/06/26 03:08:45;;;;;;;11.98;9.07;;;;;;;;;;5031980;28;20429;-61
2021/06/26 03:11:10;;;;;;;11.57;9.50;;;;;;;;;;5031272;28;20041;-60
2021/06/26 03:13:36;;;;;;;10.23;8.70;;;;;;;;;;5032289;28;20038;-61
2021/06/26 03:16:01;;;;;;;11.02;9.05;;;;;;;;;;5024465;28;20036;-61
2021/06/26 03:18:27;;;;;;;11.43;9.43;;;;;;;;;;5031406;28;20442;-61
2021/06/26 03:20:52;;;;;;;11.27;8.93;;;;;;;;;;5031449;28;20465;-61
2021/06/26 03:23:18;;;;;;;10.88;9.20;;;;;;;;;;5031384;28;20025;-61
2021/06/26 03:25:43;;;;;;;10.30;8.55;;;;;;;;;;5032290;28;20042;-61
2021/06/26 03:28:09;;;;;;;11.30;8.65;;;;;;;;;;5047094;28;20216;-61
2021/06/26 03:30:34;;;;;;;10.23;9.10;;;;;;;;;;5032745;28;20037;-61
2021/06/26 03:33:00;;;;;;;11.75;9.00;;;;;;;;;;5018029;28;20080;-61
2021/06/26 03:35:25;;;;;;;10.95;9.10;;;;;;;;;;5029846;28;20404;-61
2021/06/26 03:37:51;;;;;;;11.43;9.45;;;;;;;;;;5033653;28;20133;-60
2021/06/26 03:40:16;;;;;;;12.45;9.93;;;;;;;;;;5031937;28;20126;-61
2021/06/26 03:42:41;;;;;;;10.95;8.88;;;;;;;;;;5032635;28;20072;-61
2021/06/26 03:45:08;;;;;;;10.00;7.22;;;;;;;;;;5034155;28;20033;-61
2021/06/26 03:47:34;;;;;;;9.02;5.35;;;;;;;;;;5049386;28;20114;-60
2021/06/26 03:50:00;;;;;;;5.47;4.10;;;;;;;;;;5015763;28;20038;-61
2021/06/26 03:52:25;;;;;;;3.95;3.40;;;;;;;;;;5031624;28;20492;-61
2021/06/26 03:54:51;;;;;;;9.68;7.50;;;;;;;;;;5032342;28;20087;-61
2021/06/26 03:57:16;;;;;;;12.55;9.27;;;;;;;;;;5030026;28;20121;-61
2021/06/26 03:59:42;;;;;;;10.60;8.20;;;;;;;;;;5017153;28;20045;-61
2021/06/26 04:02:07;;;;;;;10.50;8.77;;;;;;;;;;5022178;28;20048;-61
2021/06/26 04:04:36;;;;;;;10.25;8.35;;;;;;;;;;5014819;28;20065;-61
2021/06/26 04:07:03;;;;;;;9.85;8.13;;;;;;;;;;5032466;28;20091;-61
2021/06/26 04:09:28;;;;;;;11.27;9.10;;;;;;;;;;5030721;28;20028;-61
2021/06/26 04:11:54;;;;;;;11.02;9.07;;;;;;;;;;5013742;28;20061;-60
2021/06/26 04:14:19;;;;;;;12.98;10.07;;;;;;;;;;5016002;28;20037;-61
2021/06/26 04:16:45;;;;;;;11.82;10.13;;;;;;;;;;5022353;28;20113;-60
2021/06/26 04:19:13;;;;;;;11.52;9.82;;;;;;;;;;5028831;28;20977;-61
2021/06/26 04:21:38;;;;;;;11.38;8.73;;;;;;;;;;5021114;28;20044;-62
2021/06/26 04:24:04;;;;;;;10.80;8.68;;;;;;;;;;5031771;28;20034;-61
2021/06/26 04:26:30;;;;;;;10.75;8.80;;;;;;;;;;5028801;28;20065;-61
2021/06/26 04:28:55;;;;;;;9.75;7.93;;;;;;;;;;5029202;28;20235;-61
2021/06/26 04:31:20;;;;;;;12.65;10.27;;;;;;;;;;5031537;28;20033;-61
2021/06/26 04:33:46;;;;;;;12.43;10.38;;;;;;;;;;5029641;28;20037;-61
2021/06/26 04:36:13;;;;;;;13.50;10.30;;;;;;;;;;5048704;28;20034;-61
2021/06/26 04:38:38;;;;;;;13.65;10.35;;;;;;;;;;5030491;28;20026;-61
2021/06/26 04:41:04;;;;;;;11.60;9.65;;;;;;;;;;5031952;28;20497;-61
2021/06/26 04:43:29;;;;;;;12.05;10.10;;;;;;;;;;5031680;28;20033;-61
2021/06/26 04:45:55;;;;;;;13.13;10.20;;;;;;;;;;5046894;28;20474;-61
2021/06/26 04:48:20;;;;;;;12.07;10.23;;;;;;;;;;5030713;28;20037;-61
2021/06/26 04:50:46;;;;;;;12.35;9.85;;;;;;;;;;5031198;28;20109;-61
2021/06/26 04:53:12;;;;;;;11.70;9.45;;;;;;;;;;4985141;28;20080;-62
2021/06/26 04:55:38;;;;;;;13.40;10.55;;;;;;;;;;5023085;28;20033;-61
2021/06/26 04:58:03;;;;;;;10.77;9.32;;;;;;;;;;5031500;28;20037;-61
2021/06/26 05:00:29;;;;;;;12.15;10.27;;;;;;;;;;5030133;28;20077;-61
2021/06/26 05:02:54;;;;;;;11.77;10.13;;;;;;;;;;5046414;28;20090;-61
2021/06/26 05:05:20;;;;;;;11.73;9.65;;;;;;;;;;5016939;28;20042;-61
2021/06/26 05:07:45;;;;;;;12.60;10.32;;;;;;;;;;5016983;28;20430;-61
2021/06/26 05:10:11;;;;;;;11.65;9.77;;;;;;;;;;5030989;28;20026;-61
2021/06/26 05:12:41;;;;;;;11.75;9.52;;;;;;;;;;5045864;28;20617;-60
2021/06/26 05:15:06;;;;;;;11.05;9.48;;;;;;;;;;5047102;28;20064;-61
2021/06/26 05:17:32;;;;;;;10.75;8.95;;;;;;;;;;5029932;28;20032;-61
2021/06/26 05:19:58;;;;;;;10.90;9.45;;;;;;;;;;5028968;28;20882;-61
2021/06/26 05:22:23;;;;;;;11.80;9.40;;;;;;;;;;5030954;28;20121;-61
2021/06/26 05:24:49;;;;;;;11.02;9.07;;;;;;;;;;5015912;28;20390;-61
2021/06/26 05:27:14;;;;;;;11.82;9.93;;;;;;;;;;5016979;28;20065;-61
2021/06/26 05:29:42;;;;;;;10.95;9.13;;;;;;;;;;5022698;28;20044;-61
2021/06/26 05:32:08;;;;;;;10.65;8.80;;;;;;;;;;5006603;28;20123;-61
2021/06/26 05:34:34;;;;;;;11.30;9.07;;;;;;;;;;5030885;28;20510;-61
2021/06/26 05:37:00;;;;;;;11.23;8.85;;;;;;;;;;5031406;28;20034;-60
2021/06/26 05:39:25;;;;;;;11.82;9.40;;;;;;;;;;5031806;28;20049;-61
2021/06/26 05:41:51;;;;;;;11.05;8.63;;;;;;;;;;5016236;28;20025;-60
2021/06/26 05:44:18;;;;;;;10.88;8.60;;;;;;;;;;5030601;28;20085;-61
2021/06/26 05:46:43;;;;;;;10.50;8.38;;;;;;;;;;5030900;28;20030;-61
2021/06/26 05:49:08;;;;;;;10.43;8.00;;;;;;;;;;5029429;28;20120;-61
2021/06/26 05:51:35;;;;;;;10.38;8.70;;;;;;;;;;5030791;28;20153;-61
2021/06/26 05:54:01;;;;;;;11.07;8.82;;;;;;;;;;5030745;28;20486;-60
2021/06/26 05:56:26;;;;;;;10.60;8.70;;;;;;;;;;5030440;28;20053;-61
2021/06/26 05:58:52;;;;;;;10.73;8.25;;;;;;;;;;5030317;28;20288;-60
2021/06/26 06:01:18;;;;;;;10.52;7.53;;;;;;;;;;5030329;28;20037;-61
2021/06/26 06:03:46;;;;;;;10.80;8.73;;;;;;;;;;5044568;28;20046;-61
2021/06/26 06:06:11;;;;;;;9.52;7.82;;;;;;;;;;5030114;28;20057;-65
2021/06/26 06:08:37;;;;;;;10.52;8.07;;;;;;;;;;5043706;28;20072;-65
2021/06/26 06:11:02;;;;;;;10.93;7.97;;;;;;;;;;5012756;28;20059;-65
2021/06/26 06:13:28;;;;;;;9.82;7.78;;;;;;;;;;5044077;28;20653;-65
2021/06/26 06:15:53;;;;;;;9.63;7.30;;;;;;;;;;5029688;28;20041;-65
2021/06/26 06:18:19;;;;;;;9.98;7.50;;;;;;;;;;5027749;28;20038;-65
2021/06/26 06:20:46;;;;;;;9.57;7.82;;;;;;;;;;5014689;28;20084;-65
2021/06/26 06:23:12;;;;;;;9.35;7.32;;;;;;;;;;5030837;28;20461;-65
2021/06/26 06:25:38;;;;;;;9.18;7.20;;;;;;;;;;5029767;28;20041;-65
2021/06/26 06:28:04;;;;;;;8.63;6.82;;;;;;;;;;5046070;28;20033;-66
2021/06/26 06:30:31;;;;;;;9.60;7.50;;;;;;;;;;5032731;28;20026;-65
2021/06/26 06:32:58;;;;;;;9.13;7.07;;;;;;;;;;5033029;28;20760;-65
2021/06/26 06:35:24;;;;;;;9.57;7.40;;;;;;;;;;5049045;28;20069;-65
2021/06/26 06:37:50;;;;;;;9.50;7.45;;;;;;;;;;5034380;28;20162;-65
2021/06/26 06:40:15;;;;;;;9.80;7.38;;;;;;;;;;5035001;28;20034;-64
2021/06/26 06:42:42;;;;;;;9.57;7.32;;;;;;;;;;5023695;28;20034;-65
2021/06/26 06:45:08;;;;;;;8.77;6.43;;;;;;;;;;5033590;28;20030;-65
2021/06/26 06:47:33;;;;;;;8.82;7.20;;;;;;;;;;5049002;28;20044;-65
2021/06/26 06:49:59;;;;;;;9.75;7.05;;;;;;;;;;5033532;28;20061;-65
2021/06/26 06:52:24;;;;;;;9.00;6.95;;;;;;;;;;5032097;28;20691;-65
2021/06/26 06:54:50;;;;;;;9.63;6.90;;;;;;;;;;5033372;28;20120;-65
2021/06/26 06:57:20;;;;;;;9.18;6.85;;;;;;;;;;5040048;28;20041;-65
2021/06/26 06:59:45;;;;;;;8.52;6.68;;;;;;;;;;5049146;28;20426;-65
2021/06/26 07:02:10;;;;;;;9.63;6.90;;;;;;;;;;5032701;28;20038;-65
2021/06/26 07:04:36;;;;;;;8.50;6.68;;;;;;;;;;5016914;28;20045;-65
2021/06/26 07:07:01;;;;;;;7.50;5.88;;;;;;;;;;5021298;28;20402;-65
2021/06/26 07:09:27;;;;;;;8.65;6.78;;;;;;;;;;5031656;28;20041;-64
2021/06/26 07:11:53;;;;;;;8.60;6.28;;;;;;;;;;5014351;28;20054;-64
2021/06/26 07:14:19;;;;;;;8.20;5.97;;;;;;;;;;5025575;28;20498;-65
2021/06/26 07:16:44;;;;;;;7.43;5.38;;;;;;;;;;5032260;28;20076;-65
2021/06/26 07:19:09;;;;;;;8.55;6.50;;;;;;;;;;5033851;28;20556;-61
2021/06/26 07:21:35;;;;;;;9.23;6.90;;;;;;;;;;5031397;28;20116;-61
2021/06/26 07:24:00;;;;;;;8.77;6.32;;;;;;;;;;5030958;28;20127;-61
2021/06/26 07:26:26;;;;;;;8.35;6.20;;;;;;;;;;5033406;28;20042;-62
2021/06/26 07:28:51;;;;;;;8.90;6.43;;;;;;;;;;5032072;28;20032;-61
2021/06/26 07:31:17;;;;;;;9.65;6.85;;;;;;;;;;5032654;28;20115;-62
2021/06/26 07:33:42;;;;;;;7.90;6.05;;;;;;;;;;5022849;28;20490;-61
2021/06/26 07:36:08;;;;;;;8.80;6.13;;;;;;;;;;5015722;28;20037;-61
2021/06/26 07:38:33;;;;;;;7.20;5.78;;;;;;;;;;5031480;28;20380;-62
2021/06/26 07:40:59;;;;;;;7.70;5.75;;;;;;;;;;5032860;28;20049;-61
2021/06/26 07:43:25;;;;;;;8.23;5.93;;;;;;;;;;5033296;28;20037;-61
2021/06/26 07:45:51;;;;;;;7.93;5.95;;;;;;;;;;5032715;28;20036;-61
2021/06/26 07:48:16;;;;;;;7.35;5.47;;;;;;;;;;5024853;28;20037;-61
2021/06/26 07:50:43;;;;;;;7.22;5.68;;;;;;;;;;5031802;28;20060;-61
2021/06/26 07:53:08;;;;;;;6.93;5.38;;;;;;;;;;5014302;28;20950;-61
2021/06/26 07:55:34;;;;;;;6.47;5.10;;;;;;;;;;5047118;28;20041;-61
2021/06/26 07:57:59;;;;;;;6.95;5.28;;;;;;;;;;5030872;28;20134;-62
2021/06/26 08:00:25;;;;;;;7.78;5.75;;;;;;;;;;5018295;28;20053;-62
2021/06/26 08:02:51;;;;;;;6.70;5.35;;;;;;;;;;5032391;28;20076;-62
2021/06/26 08:05:16;;;;;;;7.00;5.18;;;;;;;;;;5032562;28;20038;-62
2021/06/26 08:07:42;;;;;;;8.00;5.85;;;;;;;;;;5030860;28;20061;-62
2021/06/26 08:10:08;;;;;;;6.90;4.82;;;;;;;;;;5022247;28;20026;-62
2021/06/26 08:12:33;;;;;;;6.45;5.18;;;;;;;;;;5030469;28;20936;-62
2021/06/26 08:15:01;;;;;;;6.55;4.93;;;;;;;;;;5032054;28;20128;-62
2021/06/26 08:17:26;;;;;;;7.10;5.32;;;;;;;;;;5031974;28;20037;-62
2021/06/26 08:19:51;;;;;;;7.25;5.32;;;;;;;;;;5029400;28;20049;-62
2021/06/26 08:22:17;;;;;;;7.25;5.32;;;;;;;;;;5031872;28;20033;-62
2021/06/26 08:24:42;;;;;;;7.72;5.68;;;;;;;;;;5032107;28;20034;-62
2021/06/26 08:27:08;;;;;;;6.97;5.28;;;;;;;;;;5015541;28;20038;-62
2021/06/26 08:29:34;;;;;;;7.05;5.30;;;;;;;;;;5030310;28;20125;-62
2021/06/26 08:31:59;;;;;;;8.23;5.93;;;;;;;;;;5031342;28;20394;-62
2021/06/26 08:34:24;;;;;;;7.50;5.47;;;;;;;;;;5031923;28;20048;-62
2021/06/26 08:36:51;;;;;;;6.88;5.18;;;;;;;;;;5030976;28;20033;-62
2021/06/26 08:39:19;;;;;;;6.68;4.75;;;;;;;;;;5031856;28;20044;-61
2021/06/26 08:41:47;;;;;;;7.95;5.00;;;;;;;;;;5045659;28;20136;-62
2021/06/26 08:44:12;;;;;;;6.80;5.35;;;;;;;;;;5029350;28;21020;-62
2021/06/26 08:46:42;;;;;;;7.22;5.15;;;;;;;;;;5029182;28;20034;-62
2021/06/26 08:49:07;;;;;;;7.55;5.55;;;;;;;;;;5031498;28;20041;-62
2021/06/26 08:51:33;;;;;;;7.20;5.43;;;;;;;;;;5029003;28;20041;-62
2021/06/26 08:53:58;;;;;;;8.05;5.38;;;;;;;;;;5030114;28;20095;-62
2021/06/26 08:56:24;;;;;;;6.82;5.07;;;;;;;;;;5013924;28;20026;-62
2021/06/26 08:58:49;;;;;;;8.32;5.40;;;;;;;;;;5029524;28;20035;-62
2021/06/26 09:01:15;;;;;;;7.72;5.35;;;;;;;;;;5030968;28;20545;-62
2021/06/26 09:03:40;;;;;;;8.25;5.57;;;;;;;;;;5029013;28;20549;-62
2021/06/26 09:06:08;;;;;;;6.50;4.80;;;;;;;;;;5022468;28;20127;-62
2021/06/26 09:08:34;;;;;;;6.72;4.78;;;;;;;;;;5020506;28;20045;-62
2021/06/26 09:10:59;;;;;;;7.65;5.22;;;;;;;;;;5030310;28;20037;-62
2021/06/26 09:13:27;;;;;;;6.45;4.72;;;;;;;;;;5046889;28;20128;-62
2021/06/26 09:16:09;;;;;;;6.72;5.03;;;;;;;;;;5030052;28;20044;-62
2021/06/26 09:18:40;;;;;;;8.55;5.10;;;;;;;;;;5022850;28;20120;-62
2021/06/26 09:21:29;;;;;;;6.28;4.80;;;;;;;;;;5031727;28;20116;-63
2021/06/26 09:24:11;;;;;;;6.28;4.47;;;;;;;;;;5031425;28;20040;-63
2021/06/26 09:26:42;;;;;;;5.95;4.47;;;;;;;;;;5030737;28;20098;-62
2021/06/26 09:29:11;;;;;;;5.82;4.80;;;;;;;;;;5045402;28;20037;-63
2021/06/26 09:31:57;;;;;;;6.10;5.00;;;;;;;;;;5030499;28;20026;-62
2021/06/26 09:34:34;;;;;;;6.72;4.15;;;;;;;;;;5030755;28;20116;-62
2021/06/26 09:37:04;;;;;;;6.60;4.60;;;;;;;;;;5030565;28;20686;-62
2021/06/26 09:39:40;;;;;;;6.13;4.72;;;;;;;;;;5003951;28;20034;-62
2021/06/26 09:42:26;;;;;;;5.97;4.50;;;;;;;;;;5031268;28;20044;-62
2021/06/26 09:44:52;;;;;;;5.93;4.40;;;;;;;;;;5029973;28;20143;-62
2021/06/26 09:47:34;;;;;;;6.18;4.63;;;;;;;;;;5029559;28;20025;-62
2021/06/26 09:50:19;;;;;;;5.35;4.13;;;;;;;;;;5032429;28;20045;-62
2021/06/26 09:52:50;;;;;;;6.43;4.63;;;;;;;;;;5030478;28;20042;-63
2021/06/26 09:55:38;;;;;;;8.47;5.27;;;;;;;;;;5019767;28;20077;-62
2021/06/26 09:58:11;;;;;;;5.97;4.13;;;;;;;;;;5029008;28;20585;-63
2021/06/26 10:00:40;;;;;;;5.28;3.90;;;;;;;;;;5017074;28;20033;-62
2021/06/26 10:03:06;;;;;;;5.88;4.55;;;;;;;;;;5031836;28;20497;-62
2021/06/26 10:05:32;;;;;;;5.95;4.35;;;;;;;;;;5031330;28;20053;-61
2021/06/26 10:07:59;;;;;;;6.25;4.75;;;;;;;;;;5031376;28;20048;-61
2021/06/26 10:10:25;;;;;;;5.25;4.05;;;;;;;;;;5012767;28;20077;-61
2021/06/26 10:12:53;;;;;;;4.80;3.70;;;;;;;;;;5028741;28;20073;-61
2021/06/26 10:15:22;;;;;;;5.50;4.22;;;;;;;;;;5027673;28;20054;-61
2021/06/26 10:17:49;;;;;;;5.97;4.03;;;;;;;;;;5028658;28;20113;-62
2021/06/26 10:20:17;;;;;;;4.57;3.67;;;;;;;;;;5029987;28;20053;-62
2021/06/26 10:22:45;;;;;;;6.22;4.25;;;;;;;;;;5005737;28;20041;-62
2021/06/26 10:25:11;;;;;;;5.60;4.22;;;;;;;;;;5015829;28;20045;-63
2021/06/26 10:27:37;;;;;;;6.03;4.38;;;;;;;;;;5014946;28;20034;-64
2021/06/26 10:30:21;;;;;;;6.25;4.25;;;;;;;;;;5030119;28;20065;-62
2021/06/26 10:32:52;;;;;;;5.68;4.40;;;;;;;;;;5021492;28;20049;-62
2021/06/26 10:35:18;;;;;;;6.43;4.37;;;;;;;;;;5018580;28;20107;-62
2021/06/26 10:37:43;;;;;;;7.15;4.70;;;;;;;;;;5044158;28;20453;-62
2021/06/26 10:40:10;;;;;;;6.30;4.95;;;;;;;;;;5030258;28;20034;-62
2021/06/26 10:42:37;;;;;;;6.32;4.40;;;;;;;;;;5044042;28;20034;-62
2021/06/26 10:45:08;;;;;;;6.40;4.57;;;;;;;;;;5030695;28;20033;-62
2021/06/26 10:47:35;;;;;;;7.20;4.63;;;;;;;;;;5005515;28;20034;-62
2021/06/26 10:50:12;;;;;;;6.25;4.65;;;;;;;;;;5029048;28;20038;-62
2021/06/26 10:52:56;;;;;;;6.65;4.53;;;;;;;;;;5017962;28;20046;-62
2021/06/26 10:55:29;;;;;;;6.18;4.43;;;;;;;;;;5029856;28;20072;-62
2021/06/26 10:57:55;;;;;;;6.75;4.45;;;;;;;;;;5028169;28;20149;-62
2021/06/26 11:00:34;;;;;;;5.95;4.45;;;;;;;;;;5011232;28;20063;-62
2021/06/26 11:03:01;;;;;;;6.68;4.72;;;;;;;;;;5012654;28;20059;-62
2021/06/26 11:05:32;;;;;;;5.68;4.35;;;;;;;;;;5028873;28;20026;-62
2021/06/26 11:07:57;;;;;;;5.78;4.53;;;;;;;;;;5021616;28;20110;-62
2021/06/26 11:10:23;;;;;;;4.72;4.13;;;;;;;;;;5029408;28;20043;-62
2021/06/26 11:12:49;;;;;;;4.75;3.58;;;;;;;;;;5015407;28;20343;-62
2021/06/26 11:15:24;;;;;;;5.18;3.60;;;;;;;;;;5030254;28;20485;-62
2021/06/26 11:17:49;;;;;;;6.38;4.05;;;;;;;;;;5025015;28;20068;-63
2021/06/26 11:20:16;;;;;;;5.10;3.70;;;;;;;;;;5019500;28;20038;-62
2021/06/26 11:22:56;;;;;;;5.43;4.18;;;;;;;;;;5048453;28;20034;-62
2021/06/26 11:25:25;;;;;;;5.28;4.07;;;;;;;;;;5040693;28;20485;-62
2021/06/26 11:28:12;;;;;;;5.80;3.58;;;;;;;;;;5031581;28;20100;-62
2021/06/26 11:30:42;;;;;;;5.15;3.60;;;;;;;;;;5032770;28;20037;-62
2021/06/26 11:33:08;;;;;;;5.03;3.67;;;;;;;;;;5024898;28;20080;-62
2021/06/26 11:35:37;;;;;;;5.43;4.32;;;;;;;;;;5032689;28;20038;-62
2021/06/26 11:38:03;;;;;;;4.65;3.80;;;;;;;;;;5024052;28;20037;-62
2021/06/26 11:40:30;;;;;;;5.40;3.88;;;;;;;;;;5015498;28;20026;-62
2021/06/26 11:43:02;;;;;;;6.40;3.55;;;;;;;;;;5017940;28;20053;-62
2021/06/26 11:45:30;;;;;;;4.68;3.47;;;;;;;;;;5016985;28;20049;-61
2021/06/26 11:48:11;;;;;;;5.60;3.80;;;;;;;;;;5032014;28;20030;-62
2021/06/26 11:50:48;;;;;;;3.85;3.33;;;;;;;;;;5032834;28;20041;-62
2021/06/26 11:53:15;;;;;;;4.53;3.58;;;;;;;;;;5048673;28;20076;-62
2021/06/26 11:55:50;;;;;;;4.82;3.28;;;;;;;;;;5031992;28;20022;-62
2021/06/26 11:58:19;;;;;;;4.10;3.33;;;;;;;;;;5023736;28;20546;-62
2021/06/26 12:00:48;;;;;;;4.97;3.63;;;;;;;;;;5032741;28;20486;-62
2021/06/26 12:03:17;;;;;;;4.15;3.08;;;;;;;;;;5031718;28;20116;-62
2021/06/26 12:05:43;;;;;;;4.10;3.47;;;;;;;;;;5022291;28;20152;-61
2021/06/26 12:08:08;;;;;;;4.95;3.03;;;;;;;;;;5016395;28;21177;-62
2021/06/26 12:10:34;;;;;;;4.15;3.05;;;;;;;;;;5017946;28;20089;-61
2021/06/26 12:12:59;;;;;;;5.13;3.33;;;;;;;;;;5032827;28;20442;-62
2021/06/26 12:15:25;;;;;;;3.53;3.00;;;;;;;;;;5017473;28;20045;-62
2021/06/26 12:18:01;;;;;;;4.30;3.30;;;;;;;;;;5032636;28;20488;-62
2021/06/26 12:20:27;;;;;;;4.05;3.42;;;;;;;;;;5033630;28;20422;-62
2021/06/26 12:23:03;;;;;;;4.22;3.33;;;;;;;;;;5017192;28;20116;-62
2021/06/26 12:25:34;;;;;;;3.42;3.00;;;;;;;;;;5014637;28;20570;-62
2021/06/26 12:28:00;;;;;;;4.07;3.05;;;;;;;;;;5022565;28;20040;-62
2021/06/26 12:30:26;;;;;;;3.97;2.92;;;;;;;;;;5046227;28;20391;-62
2021/06/26 12:33:02;;;;;;;3.38;2.97;;;;;;;;;;5031958;28;20042;-62
2021/06/26 12:35:29;;;;;;;3.55;3.10;;;;;;;;;;5033213;28;20212;-62
2021/06/26 12:37:54;;;;;;;4.20;3.40;;;;;;;;;;5047632;28;20041;-62
2021/06/26 12:40:25;;;;;;;3.38;2.80;;;;;;;;;;5046153;28;20025;-62
2021/06/26 12:42:56;;;;;;;3.95;2.90;;;;;;;;;;5023127;28;20029;-62
2021/06/26 12:45:30;;;;;;;3.53;2.90;;;;;;;;;;5032890;28;20113;-61
2021/06/26 12:48:05;;;;;;;3.88;2.95;;;;;;;;;;5029854;28;20045;-62
2021/06/26 12:50:33;;;;;;;4.05;3.15;;;;;;;;;;5031099;28;20141;-62
2021/06/26 12:52:59;;;;;;;3.28;2.85;;;;;;;;;;5031867;28;20040;-62
2021/06/26 12:55:24;;;;;;;4.43;3.22;;;;;;;;;;5048718;28;21017;-62
2021/06/26 12:57:50;;;;;;;4.78;3.20;;;;;;;;;;5031851;28;20494;-62
2021/06/26 13:00:20;;;;;;;3.85;2.83;;;;;;;;;;5016635;28;20412;-62
2021/06/26 13:02:47;;;;;;;3.63;2.90;;;;;;;;;;5022615;28;20060;-62
2021/06/26 13:05:23;;;;;;;4.25;3.45;;;;;;;;;;5048626;28;20413;-62
2021/06/26 13:08:00;;;;;;;3.60;3.00;;;;;;;;;;5023165;28;20525;-62
2021/06/26 13:10:26;;;;;;;4.18;3.28;;;;;;;;;;5015705;28;20478;-62
2021/06/26 13:12:51;;;;;;;4.18;3.20;;;;;;;;;;5032135;28;20077;-62
2021/06/26 13:15:17;;;;;;;3.42;2.92;;;;;;;;;;5047140;28;20049;-62
2021/06/26 13:17:42;;;;;;;3.35;2.83;;;;;;;;;;5031715;28;20033;-62
2021/06/26 13:20:10;;;;;;;4.82;3.38;;;;;;;;;;5030904;28;20541;-62
2021/06/26 13:22:40;;;;;;;4.88;3.05;;;;;;;;;;5030676;28;20034;-62
2021/06/26 13:25:07;;;;;;;3.67;2.80;;;;;;;;;;5031736;28;20099;-62
2021/06/26 13:27:33;;;;;;;3.70;2.92;;;;;;;;;;5030378;28;20080;-62
2021/06/26 13:29:58;;;;;;;4.70;2.83;;;;;;;;;;5029682;28;20038;-62
2021/06/26 13:32:24;;;;;;;4.45;2.92;;;;;;;;;;5031205;28;20033;-61
2021/06/26 13:34:50;;;;;;;4.18;3.20;;;;;;;;;;5031365;28;20454;-62
2021/06/26 13:37:15;;;;;;;4.13;2.88;;;;;;;;;;5031431;28;20051;-62
2021/06/26 13:39:41;;;;;;;2.70;2.40;;;;;;;;;;5031831;28;20141;-62
2021/06/26 13:42:06;;;;;;;3.13;2.58;;;;;;;;;;5033119;28;20580;-62
2021/06/26 13:44:32;;;;;;;3.85;2.60;;;;;;;;;;5028232;28;20041;-62
2021/06/26 13:46:57;;;;;;;3.10;2.60;;;;;;;;;;5019717;28;20095;-62
2021/06/26 13:49:23;;;;;;;4.03;2.95;;;;;;;;;;5015982;28;20038;-62
2021/06/26 13:51:48;;;;;;;4.07;2.80;;;;;;;;;;5031389;28;20045;-62
2021/06/26 13:54:14;;;;;;;3.60;2.97;;;;;;;;;;5021748;28;20079;-62
2021/06/26 13:56:39;;;;;;;3.67;2.90;;;;;;;;;;5030940;28;20699;-62
2021/06/26 13:59:06;;;;;;;2.85;2.22;;;;;;;;;;5030018;28;20058;-62
2021/06/26 14:01:33;;;;;;;3.10;2.42;;;;;;;;;;5030727;28;20034;-61
2021/06/26 14:03:59;;;;;;;3.40;2.70;;;;;;;;;;5030104;28;20037;-62
2021/06/26 14:06:24;;;;;;;3.42;2.58;;;;;;;;;;5029799;28;20132;-62
2021/06/26 14:08:50;;;;;;;3.90;2.47;;;;;;;;;;5022559;28;20060;-62
2021/06/26 14:11:17;;;;;;;2.10;1.90;;;;;;;;;;5029250;28;20041;-62
2021/06/26 14:13:42;;;;;;;2.40;2.00;;;;;;;;;;5030841;28;20034;-62
2021/06/26 14:16:11;;;;;;;1.65;1.55;;;;;;;;;;5030963;28;20502;-62
2021/06/26 14:18:37;;;;;;;2.05;1.67;;;;;;;;;;5043798;28;20160;-62
2021/06/26 14:21:05;;;;;;;1.75;1.65;;;;;;;;;;5014506;28;20042;-62
2021/06/26 14:23:31;;;;;;;1.83;1.60;;;;;;;;;;5014297;28;20069;-62
2021/06/26 14:25:56;;;;;;;2.10;1.58;;;;;;;;;;5030123;28;20034;-62
2021/06/26 14:28:22;;;;;;;2.38;1.75;;;;;;;;;;5011553;28;20034;-62
2021/06/26 14:30:47;;;;;;;2.38;1.70;;;;;;;;;;5023934;28;20406;-62
2021/06/26 14:33:13;;;;;;;1.75;1.58;;;;;;;;;;5029252;28;20096;-62
2021/06/26 14:35:38;;;;;;;1.80;1.58;;;;;;;;;;5033950;28;20037;-61
2021/06/26 14:38:04;;;;;;;1.70;1.60;;;;;;;;;;5014522;28;20443;-62